createdAt,value
2022-11-16T00:02:15.096Z,0.17
2022-11-16T00:04:45.266Z,-0.02
2022-11-16T00:07:13.910Z,-0.45
2022-11-16T00:09:42.274Z,0.35
2022-11-16T00:12:12.752Z,-0.82
2022-11-16T00:14:41.226Z,-0.63
2022-11-16T00:17:09.745Z,-0.35
2022-11-16T00:19:38.301Z,-0.23
2022-11-16T00:22:08.132Z,-0.43
2022-11-16T00:24:36.727Z,-0.49
2022-11-16T00:27:05.254Z,-0.37
2022-11-16T00:29:33.419Z,-0.23
2022-11-16T00:32:01.967Z,-0.32
2022-11-16T00:34:30.533Z,-0.40
2022-11-16T00:36:58.946Z,-0.57
2022-11-16T00:39:29.191Z,-0.63
2022-11-16T00:41:57.716Z,-0.23
2022-11-16T00:44:25.960Z,-0.58
2022-11-16T00:46:54.547Z,-0.53
2022-11-16T00:49:23.238Z,-0.68
2022-11-16T00:51:51.491Z,-0.19
2022-11-16T00:54:19.995Z,-0.40
2022-11-16T00:56:49.876Z,-0.63
2022-11-16T00:59:18.412Z,-0.71
2022-11-16T01:01:46.808Z,-0.50
2022-11-16T01:04:15.232Z,-0.64
2022-11-16T01:06:44.699Z,-0.91
2022-11-16T01:09:13.107Z,-0.81
2022-11-16T01:11:58.667Z,-0.71
2022-11-16T01:14:28.619Z,-0.85
2022-11-16T01:16:57.125Z,-0.81
2022-11-16T01:19:25.577Z,-0.68
2022-11-16T01:21:53.898Z,-0.64
2022-11-16T01:24:22.626Z,-0.79
2022-11-16T01:26:51.040Z,-0.98
2022-11-16T01:29:20.163Z,-0.96
2022-11-16T01:31:57.243Z,-0.97
2022-11-16T01:34:26.147Z,-0.93
2022-11-16T01:36:59.659Z,-0.78
2022-11-16T01:39:32.329Z,-0.93
2022-11-16T01:42:03.510Z,-0.94
2022-11-16T01:45:01.685Z,-0.78
2022-11-16T01:47:34.041Z,-1.06
2022-11-16T01:50:10.436Z,-1.09
2022-11-16T01:52:45.186Z,-1.06
2022-11-16T01:55:14.955Z,-1.23
2022-11-16T01:58:05.492Z,-1.18
2022-11-16T02:00:36.298Z,-1.46
2022-11-16T02:03:27.099Z,-0.93
2022-11-16T02:06:10.198Z,-1.18
2022-11-16T02:09:13.900Z,-1.48
2022-11-16T02:12:18.862Z,-1.63
2022-11-16T02:15:02.968Z,-1.62
2022-11-16T02:17:42.880Z,-1.98
2022-11-16T02:20:45.259Z,-2.34
2022-11-16T02:24:13.537Z,-1.78
2022-11-16T02:27:26.464Z,-1.72
2022-11-16T02:29:58.596Z,-1.89
2022-11-16T02:32:31.558Z,-1.72
2022-11-16T02:35:07.069Z,-1.66
2022-11-16T02:37:40.287Z,-1.78
2022-11-16T02:40:13.504Z,-1.95
2022-11-16T02:42:47.157Z,-1.90
2022-11-16T02:45:23.053Z,-1.90
2022-11-16T02:47:54.860Z,-1.87
2022-11-16T02:50:25.907Z,-1.74
2022-11-16T02:52:55.877Z,-2.04
2022-11-16T02:55:28.788Z,-1.95
2022-11-16T02:58:00.854Z,-1.87
2022-11-16T03:00:37.501Z,-2.22
2022-11-16T03:03:18.273Z,-2.48
2022-11-16T03:05:50.739Z,-2.23
2022-11-16T03:08:25.484Z,-2.49
2022-11-16T03:11:17.229Z,-2.45
2022-11-16T03:13:47.436Z,-2.41
2022-11-16T03:16:22.568Z,-2.49
2022-11-16T03:18:54.649Z,-2.37
2022-11-16T03:21:30.222Z,-2.23
2022-11-16T03:23:58.875Z,-2.28
2022-11-16T03:26:31.240Z,-2.15
2022-11-16T03:29:04.221Z,-2.18
2022-11-16T03:31:43.467Z,-2.27
2022-11-16T03:34:20.315Z,-2.21
2022-11-16T03:36:51.284Z,-2.19
2022-11-16T03:39:25.708Z,-2.23
2022-11-16T03:41:56.075Z,-2.13
2022-11-16T03:44:24.569Z,-2.32
2022-11-16T03:46:54.072Z,-2.11
2022-11-16T03:49:25.602Z,-2.21
2022-11-16T03:51:56.115Z,-2.34
2022-11-16T03:54:25.099Z,-2.55
2022-11-16T03:56:53.579Z,-2.58
2022-11-16T03:59:22.786Z,-2.29
2022-11-16T04:01:50.982Z,-1.77
2022-11-16T04:04:38.138Z,-1.69
2022-11-16T04:07:24.269Z,-2.08
2022-11-16T04:10:10.381Z,-2.18
2022-11-16T04:13:01.491Z,-2.17
2022-11-16T04:15:47.365Z,-2.41
2022-11-16T04:18:33.900Z,-2.34
2022-11-16T04:21:22.041Z,-2.39
2022-11-16T04:24:08.269Z,-2.44
2022-11-16T04:26:52.651Z,-2.65
2022-11-16T04:29:21.663Z,-2.82
2022-11-16T04:32:07.946Z,-2.76
2022-11-16T04:34:53.678Z,-2.88
2022-11-16T04:37:41.023Z,-3.43
2022-11-16T04:40:11.124Z,-3.06
2022-11-16T04:42:39.813Z,-3.12
2022-11-16T04:45:28.868Z,-3.54
2022-11-16T04:47:57.452Z,-3.23
2022-11-16T04:50:31.083Z,-3.35
2022-11-16T04:53:03.492Z,-3.86
2022-11-16T04:55:34.153Z,-3.32
2022-11-16T04:58:03.439Z,-3.28
2022-11-16T05:00:32.171Z,-3.44
2022-11-16T05:03:02.026Z,-3.41
2022-11-16T05:05:31.476Z,-3.16
2022-11-16T05:08:02.946Z,-3.09
2022-11-16T05:10:33.447Z,-3.19
2022-11-16T05:13:02.671Z,-3.23
2022-11-16T05:15:31.191Z,-2.94
2022-11-16T05:18:01.407Z,-2.99
2022-11-16T05:20:48.816Z,-2.88
2022-11-16T05:23:36.478Z,-2.68
2022-11-16T05:26:10.939Z,-3.30
2022-11-16T05:28:40.122Z,-2.89
2022-11-16T05:31:10.850Z,-2.69
2022-11-16T05:33:39.520Z,-2.56
2022-11-16T05:36:09.399Z,-2.40
2022-11-16T05:38:39.672Z,-2.55
2022-11-16T05:41:08.214Z,-2.46
2022-11-16T05:43:37.019Z,-2.62
2022-11-16T05:46:19.596Z,-2.45
2022-11-16T05:48:48.518Z,-2.61
2022-11-16T05:51:17.530Z,-2.73
2022-11-16T05:53:49.501Z,-2.62
2022-11-16T05:56:22.707Z,-2.37
2022-11-16T05:58:53.890Z,-2.06
2022-11-16T06:01:22.927Z,-2.37
2022-11-16T06:03:52.197Z,-2.22
2022-11-16T06:06:21.225Z,-2.31
2022-11-16T06:08:52.812Z,-1.92
2022-11-16T06:11:26.484Z,-2.18
2022-11-16T06:13:56.075Z,-1.84
2022-11-16T06:16:24.939Z,-1.80
2022-11-16T06:18:53.576Z,-1.89
2022-11-16T06:21:21.812Z,-1.49
2022-11-16T06:23:50.128Z,-1.74
2022-11-16T06:26:20.439Z,-1.56
2022-11-16T06:28:49.674Z,-1.80
2022-11-16T06:31:19.011Z,-1.94
2022-11-16T06:33:47.660Z,-1.56
2022-11-16T06:36:21.125Z,-1.29
2022-11-16T06:38:51.021Z,-0.89
2022-11-16T06:41:23.549Z,-0.53
2022-11-16T06:43:52.942Z,-0.74
2022-11-16T06:46:26.447Z,-0.69
2022-11-16T06:48:55.603Z,-0.94
2022-11-16T06:51:23.802Z,-0.70
2022-11-16T06:53:52.236Z,-1.30
2022-11-16T06:56:23.796Z,-0.98
2022-11-16T06:58:57.643Z,-0.67
2022-11-16T07:01:28.865Z,-0.38
2022-11-16T07:04:03.472Z,-0.99
2022-11-16T07:06:33.190Z,-1.34
2022-11-16T07:09:01.834Z,-1.43
2022-11-16T07:11:35.909Z,-0.93
2022-11-16T07:14:05.180Z,-0.68
2022-11-16T07:16:35.843Z,-0.16
2022-11-16T07:19:05.298Z,-0.94
2022-11-16T07:21:36.058Z,-0.49
2022-11-16T07:24:09.028Z,-0.24
2022-11-16T07:26:38.745Z,0.57
2022-11-16T07:29:14.007Z,-0.22
2022-11-16T07:31:48.206Z,0.41
2022-11-16T07:35:31.439Z,0.75
2022-11-16T07:39:13.177Z,0.09
2022-11-16T07:43:06.974Z,0.79
2022-11-16T08:57:28.218Z,0.44
2022-11-16T09:01:24.294Z,1.21
2022-11-16T09:42:04.085Z,1.48
2022-11-16T09:46:26.273Z,1.09
2022-11-16T10:18:41.837Z,0.56
2022-11-16T10:22:16.020Z,0.62
2022-11-16T10:54:38.882Z,-0.20
2022-11-16T10:58:30.778Z,-0.07
2022-11-16T11:02:22.341Z,0.13
2022-11-16T11:42:35.660Z,1.33
2022-11-16T11:45:10.448Z,1.41
2022-11-16T11:47:59.557Z,1.98
2022-11-16T11:50:49.124Z,1.79
2022-11-16T11:53:38.703Z,1.74
2022-11-16T11:56:08.097Z,1.33
2022-11-16T11:58:41.683Z,1.43
2022-11-16T12:01:44.350Z,1.63
2022-11-16T12:04:37.423Z,2.22
2022-11-16T12:07:12.777Z,2.22
2022-11-16T12:09:48.951Z,2.16
2022-11-16T12:12:30.722Z,2.16
2022-11-16T12:15:17.047Z,2.36
2022-11-16T12:17:55.675Z,2.02
2022-11-16T12:20:36.556Z,1.68
2022-11-16T12:23:43.978Z,1.82
2022-11-16T12:26:21.217Z,1.63
2022-11-16T12:29:04.222Z,1.55
2022-11-16T12:31:49.711Z,1.32
2022-11-16T12:34:31.127Z,1.53
2022-11-16T12:37:09.751Z,1.51
2022-11-16T12:39:44.470Z,1.50
2022-11-16T12:42:39.231Z,0.74
2022-11-16T12:45:33.826Z,1.09
2022-11-16T12:48:19.758Z,0.98
2022-11-16T12:51:02.867Z,1.05
2022-11-16T12:53:59.120Z,1.13
2022-11-16T12:56:42.359Z,0.85
2022-11-16T12:59:28.268Z,1.18
2022-11-16T13:02:04.708Z,1.16
2022-11-16T13:04:41.244Z,1.35
2022-11-16T13:07:16.285Z,1.20
2022-11-16T13:09:48.901Z,1.14
2022-11-16T13:12:23.612Z,1.20
2022-11-16T13:14:57.596Z,0.81
2022-11-16T13:17:29.911Z,0.94
2022-11-16T13:20:18.207Z,0.91
2022-11-16T13:22:54.163Z,0.50
2022-11-16T13:25:31.856Z,-0.16
2022-11-16T13:28:10.102Z,-0.31
2022-11-16T13:30:47.352Z,-0.25
2022-11-16T13:33:31.522Z,-0.35
2022-11-16T13:36:36.851Z,-0.47
2022-11-16T13:39:06.950Z,-0.52
2022-11-16T13:41:38.035Z,-0.39
2022-11-16T13:44:23.379Z,-0.07
2022-11-16T13:46:56.555Z,0.15
2022-11-16T13:49:31.044Z,-0.01
2022-11-16T13:52:22.059Z,-0.20
2022-11-16T13:54:54.432Z,-0.13
2022-11-16T13:57:26.568Z,-0.19
2022-11-16T14:00:10.118Z,-0.18
2022-11-16T14:02:40.733Z,-0.03
2022-11-16T14:05:17.660Z,-0.17
2022-11-16T14:07:50.108Z,-0.41
2022-11-16T14:11:07.604Z,-0.24
2022-11-16T14:13:40.910Z,-0.21
2022-11-16T14:16:47.507Z,0.11
2022-11-16T14:19:52.976Z,0.32
2022-11-16T14:22:46.147Z,0.24
2022-11-16T14:25:31.962Z,0.36
2022-11-16T14:28:18.061Z,0.30
2022-11-16T14:30:57.645Z,0.25
2022-11-16T14:33:32.458Z,0.16
2022-11-16T14:36:03.824Z,0.13
2022-11-16T14:38:34.623Z,0.05
2022-11-16T14:41:07.549Z,-0.17
2022-11-16T14:43:42.017Z,-0.18
2022-11-16T14:46:21.495Z,0.10
2022-11-16T14:48:50.916Z,0.15
2022-11-16T14:51:24.117Z,0.04
2022-11-16T14:53:56.950Z,-0.35
2022-11-16T14:56:26.882Z,-0.49
2022-11-16T14:58:57.050Z,-0.57
2022-11-16T15:01:28.973Z,-0.44
2022-11-16T15:04:02.561Z,-0.60
2022-11-16T15:06:34.123Z,-0.74
2022-11-16T15:09:05.775Z,-0.89
2022-11-16T15:11:58.439Z,-0.82
2022-11-16T15:14:30.692Z,-0.85
2022-11-16T15:17:01.371Z,-0.97
2022-11-16T15:19:32.190Z,-0.82
2022-11-16T15:22:02.318Z,-0.84
2022-11-16T15:24:32.545Z,-0.86
2022-11-16T15:27:13.937Z,-1.00
2022-11-16T15:29:42.732Z,-0.90
2022-11-16T15:32:16.860Z,-0.99
2022-11-16T15:34:49.102Z,-1.03
2022-11-16T15:37:28.506Z,-1.03
2022-11-16T15:39:57.959Z,-1.03
2022-11-16T15:42:29.492Z,-1.10
2022-11-16T15:45:01.970Z,-1.03
2022-11-16T15:47:41.201Z,-0.95
2022-11-16T15:50:50.044Z,-0.63
2022-11-16T15:53:35.811Z,-0.93
2022-11-16T15:56:07.325Z,-1.01
2022-11-16T15:58:40.798Z,-1.11
2022-11-16T16:01:10.540Z,-1.00
2022-11-16T16:03:39.773Z,-1.02
2022-11-16T16:06:13.107Z,-1.13
2022-11-16T16:08:41.970Z,-0.87
2022-11-16T16:11:28.323Z,-0.83
2022-11-16T16:14:03.280Z,-0.77
2022-11-16T16:16:36.478Z,-0.80
2022-11-16T16:19:25.709Z,-0.70
2022-11-16T16:21:54.238Z,-0.78
2022-11-16T16:24:36.044Z,-0.41
2022-11-16T16:27:11.568Z,-0.53
2022-11-16T16:29:43.144Z,-0.58
2022-11-16T16:32:22.522Z,-0.44
2022-11-16T16:34:52.199Z,-0.62
2022-11-16T16:37:21.424Z,-0.63
2022-11-16T16:39:50.009Z,-0.58
2022-11-16T16:42:19.110Z,-0.58
2022-11-16T16:44:49.638Z,-0.64
2022-11-16T16:47:20.771Z,-0.63
2022-11-16T16:49:49.404Z,-0.49
2022-11-16T16:52:17.979Z,-0.14
2022-11-16T16:54:46.649Z,-0.43
2022-11-16T16:57:16.108Z,-0.15
2022-11-16T16:59:45.602Z,-0.07
2022-11-16T17:02:16.818Z,-0.01
2022-11-16T17:04:46.995Z,0.21
2022-11-16T17:07:16.292Z,0.34
2022-11-16T17:09:44.928Z,0.38
2022-11-16T17:12:13.466Z,0.45
2022-11-16T17:14:42.225Z,0.64
2022-11-16T17:17:10.671Z,0.54
2022-11-16T17:19:45.246Z,0.48
2022-11-16T17:22:14.951Z,0.50
2022-11-16T17:24:43.511Z,0.52
2022-11-16T17:27:11.881Z,0.87
2022-11-16T17:29:40.691Z,0.61
2022-11-16T17:32:09.065Z,0.46
2022-11-16T17:34:40.021Z,0.58
2022-11-16T17:37:10.229Z,0.36
2022-11-16T17:39:39.797Z,0.34
2022-11-16T17:42:08.227Z,0.31
2022-11-16T17:44:40.964Z,0.38
2022-11-16T17:47:09.897Z,0.44
2022-11-16T17:49:38.342Z,0.37
2022-11-16T17:52:07.478Z,0.78
2022-11-16T17:54:43.863Z,0.55
2022-11-16T17:57:12.454Z,0.69
2022-11-16T17:59:40.877Z,0.64
2022-11-16T18:02:11.226Z,0.69
2022-11-16T18:04:39.988Z,-0.75
2022-11-16T18:07:08.867Z,-1.36
2022-11-16T18:09:38.098Z,-1.71
2022-11-16T18:12:08.350Z,-2.14
2022-11-16T18:14:36.987Z,-1.43
2022-11-16T18:17:05.151Z,-0.72
2022-11-16T18:19:33.597Z,-0.80
2022-11-16T18:22:02.488Z,-0.60
2022-11-16T18:24:32.560Z,-0.52
2022-11-16T18:27:01.051Z,-0.61
2022-11-16T18:29:30.935Z,-0.40
2022-11-16T18:31:59.444Z,-0.37
2022-11-16T18:34:27.623Z,-0.01
2022-11-16T18:36:56.298Z,-0.12
2022-11-16T18:39:24.673Z,-0.09
2022-11-16T18:41:54.967Z,0.10
2022-11-16T18:44:24.249Z,-0.28
2022-11-16T18:46:54.169Z,-0.42
2022-11-16T18:49:23.097Z,-0.20
2022-11-16T18:51:51.695Z,-0.04
2022-11-16T18:54:20.171Z,-0.03
2022-11-16T18:56:49.047Z,0.11
2022-11-16T18:59:17.478Z,0.15
2022-11-16T19:01:45.980Z,0.06
2022-11-16T19:04:18.290Z,0.55
2022-11-16T19:06:46.892Z,0.45
2022-11-16T19:09:15.301Z,0.35
2022-11-16T19:11:43.804Z,0.51
2022-11-16T19:14:12.225Z,0.64
2022-11-16T19:16:48.951Z,0.56
2022-11-16T19:19:21.833Z,0.30
2022-11-16T19:21:52.014Z,0.40
2022-11-16T19:24:20.504Z,0.54
2022-11-16T19:26:48.956Z,0.71
2022-11-16T19:29:17.162Z,1.05
2022-11-16T19:31:45.601Z,0.67
2022-11-16T19:34:14.227Z,1.31
2022-11-16T19:36:44.567Z,1.34
2022-11-16T19:39:13.167Z,0.85
2022-11-16T19:41:41.672Z,0.52
2022-11-16T19:44:10.138Z,0.39
2022-11-16T19:46:38.551Z,0.28
2022-11-16T19:49:08.749Z,0.53
2022-11-16T19:51:37.548Z,0.85
2022-11-16T19:54:09.346Z,0.99
2022-11-16T19:56:37.884Z,1.28
2022-11-16T19:59:06.351Z,0.96
2022-11-16T20:01:34.758Z,1.02
2022-11-16T20:04:05.082Z,0.93
2022-11-16T20:06:35.458Z,0.58
2022-11-16T20:09:08.987Z,0.73
2022-11-16T20:11:39.149Z,0.69
2022-11-16T20:14:09.570Z,0.84
2022-11-16T20:16:39.710Z,1.09
2022-11-16T20:19:08.862Z,1.22
2022-11-16T20:21:38.970Z,0.94
2022-11-16T20:24:12.028Z,1.00
2022-11-16T20:26:43.569Z,1.21
2022-11-16T20:29:13.013Z,1.00
2022-11-16T20:31:42.997Z,0.45
2022-11-16T20:34:14.747Z,0.37
2022-11-16T20:36:45.021Z,0.29
2022-11-16T20:39:17.186Z,0.23
2022-11-16T20:41:45.823Z,0.01
2022-11-16T20:44:17.222Z,0.49
2022-11-16T20:46:46.280Z,0.54
2022-11-16T20:49:14.957Z,0.39
2022-11-16T20:51:43.454Z,0.52
2022-11-16T20:54:11.870Z,0.62
2022-11-16T20:56:41.647Z,0.47
2022-11-16T20:59:11.052Z,0.55
2022-11-16T21:01:41.715Z,0.59
2022-11-16T21:04:10.999Z,0.74
2022-11-16T21:06:42.080Z,0.76
2022-11-16T21:09:12.430Z,0.69
2022-11-16T21:11:56.361Z,0.65
2022-11-16T21:14:24.873Z,0.97
2022-11-16T21:16:53.288Z,0.93
2022-11-16T21:19:21.810Z,1.20
2022-11-16T21:21:49.883Z,1.67
2022-11-16T21:24:18.440Z,1.27
2022-11-16T21:26:48.968Z,1.21
2022-11-16T21:29:17.426Z,0.99
2022-11-16T21:31:45.855Z,1.24
2022-11-16T21:34:14.240Z,1.23
2022-11-16T21:36:42.656Z,1.15
2022-11-16T21:39:11.071Z,1.42
2022-11-16T21:41:39.575Z,1.41
2022-11-16T21:44:09.405Z,1.09
2022-11-16T21:46:37.839Z,1.15
2022-11-16T21:49:07.655Z,1.24
2022-11-16T21:51:36.123Z,1.04
2022-11-16T21:54:04.816Z,1.07
2022-11-16T21:56:32.936Z,1.39
2022-11-16T21:59:01.875Z,1.25
2022-11-16T22:01:51.833Z,1.18
2022-11-16T22:04:38.701Z,1.51
2022-11-16T22:07:24.533Z,1.34
2022-11-16T22:09:53.091Z,1.09
2022-11-16T22:12:21.530Z,1.14
2022-11-16T22:14:50.024Z,0.94
2022-11-16T22:17:19.754Z,1.19
2022-11-16T22:19:48.288Z,0.79
2022-11-16T22:22:16.500Z,0.74
2022-11-16T22:24:45.007Z,0.27
2022-11-16T22:27:13.124Z,0.53
2022-11-16T22:29:41.540Z,0.23
2022-11-16T22:32:09.991Z,0.04
2022-11-16T22:34:39.786Z,0.49
2022-11-16T22:37:08.203Z,0.44
2022-11-16T22:39:38.198Z,0.27
2022-11-16T22:42:08.323Z,0.28
2022-11-16T22:44:36.911Z,0.39
2022-11-16T22:47:05.352Z,0.27
2022-11-16T22:49:33.841Z,0.35
2022-11-16T22:52:03.606Z,0.38
2022-11-16T22:54:34.263Z,0.63
2022-11-16T22:57:03.419Z,0.67
2022-11-16T22:59:31.991Z,0.91
2022-11-16T23:02:01.132Z,1.12
2022-11-16T23:04:29.532Z,0.75
2022-11-16T23:06:58.117Z,0.65
2022-11-16T23:09:27.656Z,0.95
2022-11-16T23:12:13.658Z,0.52
2022-11-16T23:14:59.549Z,0.94
2022-11-16T23:17:28.008Z,0.85
2022-11-16T23:20:17.593Z,0.47
2022-11-16T23:23:03.901Z,0.71
2022-11-16T23:26:05.973Z,0.82
2022-11-16T23:28:34.742Z,0.48
2022-11-16T23:31:03.196Z,0.30
2022-11-16T23:33:44.991Z,-0.17
2022-11-16T23:36:13.885Z,-0.53
2022-11-16T23:38:42.403Z,-0.81
2022-11-16T23:41:29.702Z,-1.17
2022-11-16T23:44:00.788Z,-0.81
2022-11-16T23:46:30.440Z,-0.58
2022-11-16T23:49:01.664Z,-0.53
2022-11-16T23:51:32.936Z,-0.73
2022-11-16T23:54:01.477Z,-0.91
2022-11-16T23:56:31.248Z,-0.92
2022-11-16T23:58:59.696Z,-0.70
